Time;durP1;ratioP1;P1;durP2;ratioP2;P2;SDS_P1;SDS_P2;PMS_P1;PMS_P2;Temp;Humidity;BMP_temperature;BMP_pressure;BME280_temperature;BME280_humidity;BME280_pressure;Samples;Min_cycle;Max_cycle;Signal;HPM_P1;HPM_P2
2024/04/03 00:00:14;;;;;;;2.75;0.80;;;;;21.20;99663.00;;;;2042711;28;20322;-58
2024/04/03 00:01:14;;;;;;;2.53;0.93;;;;;21.20;99668.00;;;;2049912;28;20227;-56
2024/04/03 00:02:15;;;;;;;2.17;0.97;;;;;21.20;99572.00;;;;2053129;28;20216;-59
2024/04/03 00:03:15;;;;;;;2.30;0.80;;;;;21.20;99674.00;;;;2052571;28;20215;-58
2024/04/03 00:04:15;;;;;;;2.87;0.80;;;;;21.20;99608.00;;;;2039799;28;20247;-57
2024/04/03 00:05:16;;;;;;;3.00;1.60;;;;;21.20;99585.00;;;;2034847;28;20276;-58
2024/04/03 00:06:17;;;;;;;2.10;0.80;;;;;21.20;99663.00;;;;2045263;28;20308;-57
2024/04/03 00:07:17;;;;;;;2.03;0.67;;;;;21.20;99689.00;;;;2045731;28;20218;-58
2024/04/03 00:08:17;;;;;;;2.40;0.80;;;;;21.20;99689.00;;;;2051688;28;20475;-57
2024/04/03 00:09:18;;;;;;;2.67;0.70;;;;;21.20;99601.00;;;;2053188;28;20823;-58
2024/04/03 00:10:18;;;;;;;2.27;0.80;;;;;21.20;99599.00;;;;2043172;28;20287;-58
2024/04/03 00:11:19;;;;;;;2.90;1.00;;;;;21.20;99419.00;;;;2051549;28;20223;-59
2024/04/03 00:12:19;;;;;;;2.47;0.90;;;;;21.10;99668.00;;;;2044426;28;20287;-57
2024/04/03 00:13:19;;;;;;;3.83;0.70;;;;;21.10;99665.00;;;;2042443;28;20228;-57
2024/04/03 00:14:20;;;;;;;2.50;0.70;;;;;21.20;99599.00;;;;2052908;28;20246;-59
2024/04/03 00:15:20;;;;;;;1.97;0.80;;;;;21.20;99601.00;;;;2043411;28;20347;-58
2024/04/03 00:16:20;;;;;;;2.33;0.80;;;;;21.10;99623.00;;;;2052727;28;20223;-58
2024/04/03 00:17:21;;;;;;;2.13;0.80;;;;;21.20;99540.00;;;;2052951;28;20220;-59
2024/04/03 00:18:21;;;;;;;3.33;1.10;;;;;21.20;99527.00;;;;2052239;28;20270;-56
2024/04/03 00:19:21;;;;;;;1.90;0.77;;;;;21.20;99589.00;;;;2052767;28;20363;-57
2024/04/03 00:20:22;;;;;;;2.40;0.80;;;;;21.20;99650.00;;;;2043346;28;21218;-57
2024/04/03 00:21:22;;;;;;;1.93;0.63;;;;;21.20;99664.00;;;;2044580;28;20792;-59
2024/04/03 00:22:23;;;;;;;1.90;0.70;;;;;21.20;99660.00;;;;2042415;28;20228;-57
2024/04/03 00:23:23;;;;;;;5.30;1.17;;;;;21.10;99481.00;;;;2052389;28;20219;-58
2024/04/03 00:24:23;;;;;;;3.30;1.00;;;;;21.10;99660.00;;;;2053193;28;20226;-58
2024/04/03 00:25:24;;;;;;;3.07;0.80;;;;;21.10;99600.00;;;;2040700;28;20235;-56
2024/04/03 00:26:24;;;;;;;3.63;1.00;;;;;21.20;99654.00;;;;2048960;28;20219;-57
2024/04/03 00:27:24;;;;;;;2.43;1.10;;;;;21.20;99540.00;;;;2051279;28;20222;-58
2024/04/03 00:28:25;;;;;;;2.00;0.60;;;;;21.10;99649.00;;;;2051510;28;20223;-58
2024/04/03 00:29:26;;;;;;;2.60;0.97;;;;;21.10;99612.00;;;;2044376;28;20302;-57
2024/04/03 00:30:26;;;;;;;3.47;0.77;;;;;21.20;99689.00;;;;2033816;28;20463;-57
2024/04/03 00:31:27;;;;;;;2.17;0.80;;;;;21.10;99569.00;;;;2052444;28;20262;-57
2024/04/03 00:32:27;;;;;;;2.20;0.80;;;;;21.10;99650.00;;;;2052106;28;20229;-58
2024/04/03 00:33:28;;;;;;;1.80;0.60;;;;;21.10;99658.00;;;;2052645;28;20302;-57
2024/04/03 00:34:28;;;;;;;2.10;1.00;;;;;21.10;99523.00;;;;2052075;28;20227;-57
2024/04/03 00:35:28;;;;;;;1.90;0.70;;;;;21.10;99639.00;;;;2042699;28;20242;-57
2024/04/03 00:36:29;;;;;;;1.83;0.77;;;;;21.10;99679.00;;;;2044167;28;20279;-57
2024/04/03 00:37:30;;;;;;;2.47;0.90;;;;;21.10;99522.00;;;;2042002;28;20238;-57
2024/04/03 00:38:30;;;;;;;2.13;0.77;;;;;21.10;99690.00;;;;2052805;28;20848;-58
2024/04/03 00:39:30;;;;;;;2.93;1.10;;;;;21.10;99380.00;;;;2054961;28;20301;-58
2024/04/03 00:40:31;;;;;;;2.10;0.90;;;;;21.20;99658.00;;;;2040633;28;20247;-57
2024/04/03 00:41:31;;;;;;;1.67;0.50;;;;;21.20;99503.00;;;;2035340;29;20255;-57
2024/04/03 00:42:32;;;;;;;2.10;0.90;;;;;21.10;99517.00;;;;2037291;28;20224;-58
2024/04/03 00:43:32;;;;;;;1.80;0.63;;;;;21.10;99571.00;;;;2052773;28;20378;-58
2024/04/03 00:44:34;;;;;;;2.20;0.70;;;;;21.10;99549.00;;;;2047625;28;20224;-58
2024/04/03 00:45:34;;;;;;;2.70;0.80;;;;;21.10;99400.00;;;;2034405;28;20700;-56
2024/04/03 00:46:35;;;;;;;2.10;0.63;;;;;21.10;99666.00;;;;2043054;28;20229;-57
2024/04/03 00:47:35;;;;;;;2.10;0.80;;;;;21.10;99649.00;;;;2035636;29;20217;-57
2024/04/03 00:48:35;;;;;;;2.40;0.80;;;;;21.10;99642.00;;;;2029257;29;20277;-57
2024/04/03 00:49:36;;;;;;;2.30;0.73;;;;;21.10;99395.00;;;;2044425;28;20291;-57
2024/04/03 00:50:36;;;;;;;1.87;0.80;;;;;21.10;99518.00;;;;2034404;28;20219;-57
2024/04/03 00:51:37;;;;;;;2.43;0.70;;;;;21.10;99673.00;;;;2049730;28;20219;-57
2024/04/03 00:52:37;;;;;;;2.27;0.70;;;;;21.10;99549.00;;;;2044153;28;20724;-58
2024/04/03 00:53:37;;;;;;;2.20;0.80;;;;;21.10;99646.00;;;;2042976;28;20212;-57
2024/04/03 00:54:39;;;;;;;2.20;0.80;;;;;21.10;99522.00;;;;2052573;28;20307;-58
2024/04/03 00:55:40;;;;;;;4.35;0.80;;;;;21.10;99589.00;;;;2033609;28;20799;-57
2024/04/03 00:56:40;;;;;;;2.10;0.82;;;;;21.10;99634.00;;;;2043574;28;20228;-57
2024/04/03 00:57:40;;;;;;;2.63;0.70;;;;;21.10;99654.00;;;;2051408;28;20235;-58
2024/04/03 00:58:41;;;;;;;2.10;0.73;;;;;21.10;99651.00;;;;2054438;28;20883;-57
2024/04/03 00:59:41;;;;;;;2.10;0.60;;;;;21.10;99576.00;;;;2052607;28;20763;-58
2024/04/03 01:00:42;;;;;;;1.97;0.70;;;;;21.10;99639.00;;;;2040335;28;20231;-56
2024/04/03 01:01:42;;;;;;;2.07;0.93;;;;;21.10;99647.00;;;;2044144;28;20251;-58
2024/04/03 01:02:42;;;;;;;3.70;0.90;;;;;21.10;99514.00;;;;2043773;28;20220;-57
2024/04/03 01:03:43;;;;;;;1.90;0.50;;;;;21.10;99552.00;;;;2043015;28;20220;-57
2024/04/03 01:04:43;;;;;;;3.40;0.80;;;;;21.10;99619.00;;;;2051716;28;20254;-57
2024/04/03 01:05:43;;;;;;;1.80;0.60;;;;;21.10;99648.00;;;;2042677;28;20989;-57
2024/04/03 01:06:44;;;;;;;2.40;0.83;;;;;21.10;99634.00;;;;2058692;28;20297;-57
2024/04/03 01:07:44;;;;;;;2.60;1.03;;;;;21.10;99655.00;;;;2050910;28;20222;-56
2024/04/03 01:08:44;;;;;;;2.80;0.90;;;;;21.10;99634.00;;;;2045647;28;20220;-57
2024/04/03 01:09:45;;;;;;;2.37;0.80;;;;;21.10;99664.00;;;;2044323;28;20251;-59
2024/04/03 01:10:45;;;;;;;1.90;0.70;;;;;21.10;99639.00;;;;2039945;28;20219;-58
2024/04/03 01:11:46;;;;;;;2.10;0.83;;;;;21.10;99642.00;;;;2051835;28;20224;-57
2024/04/03 01:12:46;;;;;;;2.65;0.75;;;;;21.10;99579.00;;;;2041203;28;20301;-57
2024/04/03 01:13:47;;;;;;;2.83;0.73;;;;;21.10;99649.00;;;;2043698;28;20374;-56
2024/04/03 01:14:47;;;;;;;5.17;0.80;;;;;21.10;99521.00;;;;2043502;28;20220;-59
2024/04/03 01:15:52;;;;;;;1.60;0.63;;;;;21.10;99570.00;;;;2033450;28;20213;-59
2024/04/03 01:16:53;;;;;;;2.00;0.80;;;;;21.10;99631.00;;;;2052640;28;20989;-57
2024/04/03 01:17:53;;;;;;;2.00;0.70;;;;;21.10;99487.00;;;;2037185;29;20217;-59
2024/04/03 01:18:53;;;;;;;1.80;0.80;;;;;21.00;99599.00;;;;2042157;28;20659;-58
2024/04/03 01:19:54;;;;;;;2.13;0.87;;;;;21.10;99609.00;;;;2043123;28;20612;-59
2024/04/03 01:20:54;;;;;;;2.00;0.70;;;;;21.10;99557.00;;;;2034360;28;20872;-57
2024/04/03 01:21:55;;;;;;;2.23;0.60;;;;;21.10;99537.00;;;;2041311;28;20251;-57
2024/04/03 01:22:55;;;;;;;2.07;1.00;;;;;21.10;99556.00;;;;2045922;28;20216;-56
2024/04/03 01:23:55;;;;;;;2.13;0.80;;;;;21.10;99629.00;;;;2044861;28;20208;-59
2024/04/03 01:24:56;;;;;;;2.23;0.80;;;;;21.10;99616.00;;;;2044593;28;20296;-58
2024/04/03 01:25:56;;;;;;;1.90;0.50;;;;;21.10;99351.00;;;;2039529;28;20218;-58
2024/04/03 01:26:56;;;;;;;2.73;0.60;;;;;21.10;99624.00;;;;2044074;28;20239;-58
2024/04/03 01:27:57;;;;;;;1.50;0.50;;;;;21.10;99497.00;;;;2042373;28;20336;-57
2024/04/03 01:28:57;;;;;;;1.60;0.50;;;;;21.10;99409.00;;;;2039869;28;20228;-59
2024/04/03 01:29:57;;;;;;;1.93;0.70;;;;;21.10;99524.00;;;;2042956;28;20319;-56
2024/04/03 01:30:58;;;;;;;2.63;0.60;;;;;21.10;99642.00;;;;2025774;29;20221;-57
2024/04/03 01:31:58;;;;;;;2.20;0.67;;;;;21.10;99548.00;;;;2038265;28;20242;-58
2024/04/03 01:32:59;;;;;;;2.20;0.70;;;;;21.10;99619.00;;;;2041061;28;20245;-59
2024/04/03 01:33:59;;;;;;;1.60;0.50;;;;;21.10;99534.00;;;;2039611;28;20309;-58
2024/04/03 01:34:59;;;;;;;1.67;0.50;;;;;21.10;99466.00;;;;2043568;28;20250;-59
2024/04/03 01:36:01;;;;;;;1.80;0.60;;;;;21.10;99549.00;;;;2034784;28;20216;-59
2024/04/03 01:37:01;;;;;;;1.80;0.70;;;;;21.10;99607.00;;;;2039711;28;20278;-57
2024/04/03 01:38:01;;;;;;;2.73;0.87;;;;;21.10;99532.00;;;;2044106;28;20916;-57
2024/04/03 01:39:02;;;;;;;1.70;0.50;;;;;21.10;99629.00;;;;2044031;28;20231;-57
2024/04/03 01:40:03;;;;;;;1.53;0.60;;;;;21.10;99467.00;;;;2033357;28;20223;-58
2024/04/03 01:41:03;;;;;;;2.20;0.80;;;;;21.10;99633.00;;;;2048700;28;20237;-58
2024/04/03 01:42:04;;;;;;;2.50;0.80;;;;;21.10;99578.00;;;;2045860;28;20746;-57
2024/04/03 01:43:04;;;;;;;1.80;0.70;;;;;21.10;99575.00;;;;2044385;28;20307;-57
2024/04/03 01:44:04;;;;;;;1.90;0.50;;;;;21.10;99585.00;;;;2043043;28;20320;-57
2024/04/03 01:45:05;;;;;;;2.17;0.60;;;;;21.10;99570.00;;;;2034049;28;20215;-58
2024/04/03 01:46:05;;;;;;;1.93;0.63;;;;;21.10;99538.00;;;;2048175;28;20227;-57
2024/04/03 01:47:06;;;;;;;2.43;0.60;;;;;21.10;99473.00;;;;2049550;28;20216;-58
2024/04/03 01:48:06;;;;;;;2.73;0.70;;;;;21.10;99615.00;;;;2052362;28;20223;-58
2024/04/03 01:49:06;;;;;;;2.13;0.80;;;;;21.10;99599.00;;;;2049274;28;20215;-58
2024/04/03 01:50:07;;;;;;;1.70;0.53;;;;;21.10;99557.00;;;;2040138;28;20306;-57
2024/04/03 01:51:07;;;;;;;1.80;0.60;;;;;21.10;99598.00;;;;2046261;28;20302;-58
2024/04/03 01:52:07;;;;;;;1.90;0.50;;;;;21.10;99492.00;;;;2052068;28;20749;-58
2024/04/03 01:53:08;;;;;;;2.20;0.70;;;;;21.10;99473.00;;;;2052275;28;20699;-59
2024/04/03 01:54:08;;;;;;;3.40;0.50;;;;;21.10;99611.00;;;;2052455;28;20220;-58
2024/04/03 01:55:08;;;;;;;1.90;0.50;;;;;21.10;99529.00;;;;2042971;28;20270;-59
2024/04/03 01:56:09;;;;;;;1.50;0.50;;;;;21.10;99620.00;;;;2051101;28;20222;-56
2024/04/03 01:57:09;;;;;;;1.90;0.70;;;;;21.00;99575.00;;;;2052658;28;20215;-60
2024/04/03 01:58:10;;;;;;;1.73;0.83;;;;;21.00;99444.00;;;;2052158;28;20223;-62
2024/04/03 01:59:10;;;;;;;1.73;0.57;;;;;21.10;99602.00;;;;2051466;28;20291;-61
2024/04/03 02:00:10;;;;;;;2.63;0.50;;;;;21.10;99507.00;;;;2042630;28;20227;-60
2024/04/03 02:01:11;;;;;;;1.93;0.60;;;;;21.10;99594.00;;;;2050291;28;20204;-59
2024/04/03 02:02:11;;;;;;;1.70;0.53;;;;;21.00;99420.00;;;;2048905;28;20203;-57
2024/04/03 02:03:11;;;;;;;2.13;0.60;;;;;21.00;99582.00;;;;2051542;28;20215;-57
2024/04/03 02:04:12;;;;;;;1.67;0.50;;;;;21.00;99570.00;;;;2052127;28;20231;-58
2024/04/03 02:05:12;;;;;;;1.80;0.50;;;;;21.00;99523.00;;;;2042187;28;20212;-57
2024/04/03 02:06:12;;;;;;;2.00;0.70;;;;;21.10;99595.00;;;;2051429;28;20215;-57
2024/04/03 02:07:13;;;;;;;1.50;0.50;;;;;21.00;99580.00;;;;2052329;28;20222;-57
2024/04/03 02:08:13;;;;;;;1.83;0.60;;;;;21.00;99494.00;;;;2051155;28;20220;-57
2024/04/03 02:09:14;;;;;;;1.77;0.57;;;;;21.00;99586.00;;;;2052544;28;20354;-57
2024/04/03 02:10:14;;;;;;;1.63;0.53;;;;;21.10;99587.00;;;;2041250;28;20219;-57
2024/04/03 02:11:16;;;;;;;1.80;0.60;;;;;21.00;99355.00;;;;2054464;28;20208;-58
2024/04/03 02:12:19;;;;;;;1.80;0.50;;;;;21.00;99549.00;;;;2051479;28;20211;-59
2024/04/03 02:13:19;;;;;;;1.60;0.60;;;;;21.00;99463.00;;;;2051280;28;20211;-57
2024/04/03 02:14:20;;;;;;;2.80;0.80;;;;;21.00;99585.00;;;;2052150;28;20207;-57
2024/04/03 02:15:20;;;;;;;2.07;0.57;;;;;21.00;99419.00;;;;2041767;28;20375;-58
2024/04/03 02:16:21;;;;;;;1.50;0.50;;;;;21.10;99590.00;;;;2052450;28;20451;-57
2024/04/03 02:17:22;;;;;;;1.70;0.40;;;;;21.00;99583.00;;;;2051354;28;20756;-57
2024/04/03 02:18:22;;;;;;;2.27;0.60;;;;;21.00;99564.00;;;;2051263;28;20234;-58
2024/04/03 02:19:22;;;;;;;2.23;0.50;;;;;21.00;99454.00;;;;2049028;28;20766;-57
2024/04/03 02:20:23;;;;;;;2.17;0.60;;;;;21.10;99485.00;;;;2038803;28;20323;-57
2024/04/03 02:21:23;;;;;;;2.10;0.73;;;;;21.00;99580.00;;;;2051333;28;20219;-58
2024/04/03 02:22:23;;;;;;;2.03;0.60;;;;;21.00;99546.00;;;;2050382;28;20219;-58
2024/04/03 02:23:24;;;;;;;3.50;0.50;;;;;21.10;99582.00;;;;2052593;28;20220;-57
2024/04/03 02:24:25;;;;;;;2.07;0.67;;;;;21.00;99607.00;;;;2046671;28;20689;-56
2024/04/03 02:25:25;;;;;;;2.00;0.53;;;;;21.00;99581.00;;;;2036878;28;20928;-57
2024/04/03 02:26:25;;;;;;;2.10;0.67;;;;;21.00;99590.00;;;;2050702;28;20568;-57
2024/04/03 02:27:26;;;;;;;2.00;0.70;;;;;21.10;99189.00;;;;2052401;28;20943;-57
2024/04/03 02:28:26;;;;;;;1.90;0.60;;;;;21.00;99560.00;;;;2052270;28;20238;-57
2024/04/03 02:29:26;;;;;;;2.50;0.70;;;;;21.00;99434.00;;;;2053018;28;20224;-59
2024/04/03 02:30:27;;;;;;;2.43;0.60;;;;;21.10;99564.00;;;;2042966;28;20235;-57
2024/04/03 02:31:28;;;;;;;1.57;0.57;;;;;21.10;99392.00;;;;2050202;28;20231;-57
2024/04/03 02:32:29;;;;;;;2.25;0.57;;;;;21.00;99551.00;;;;2052215;28;20266;-57
2024/04/03 02:33:29;;;;;;;2.47;0.70;;;;;21.00;99482.00;;;;2051727;28;20222;-58
2024/04/03 02:34:29;;;;;;;1.80;0.50;;;;;21.00;99569.00;;;;2051897;28;20208;-56
2024/04/03 02:35:30;;;;;;;1.93;0.70;;;;;21.00;99587.00;;;;2044546;28;20235;-57
2024/04/03 02:36:30;;;;;;;1.77;0.60;;;;;21.00;99563.00;;;;2054696;28;20230;-58
2024/04/03 02:37:30;;;;;;;2.03;0.60;;;;;21.00;99546.00;;;;2054628;28;20247;-56
2024/04/03 02:38:31;;;;;;;1.80;0.60;;;;;21.00;99603.00;;;;2053492;28;20640;-57
2024/04/03 02:39:31;;;;;;;1.90;0.60;;;;;21.00;99511.00;;;;2052921;28;20301;-57
2024/04/03 02:40:31;;;;;;;2.00;0.60;;;;;21.00;99385.00;;;;2043743;28;20243;-57
2024/04/03 02:41:32;;;;;;;2.03;0.50;;;;;21.00;99567.00;;;;2052443;28;20216;-57
2024/04/03 02:42:32;;;;;;;2.37;0.70;;;;;21.00;99475.00;;;;2051497;28;20759;-58
2024/04/03 02:43:32;;;;;;;2.03;0.80;;;;;21.00;99564.00;;;;2053179;28;20226;-57
2024/04/03 02:44:33;;;;;;;2.20;0.80;;;;;21.00;99423.00;;;;2052719;28;20220;-58
2024/04/03 02:45:33;;;;;;;1.70;0.50;;;;;21.00;99550.00;;;;2043955;28;20258;-59
2024/04/03 02:46:33;;;;;;;1.80;0.40;;;;;21.00;99551.00;;;;2056737;28;20231;-57
2024/04/03 02:47:35;;;;;;;2.63;0.50;;;;;21.00;99582.00;;;;2051261;28;20235;-57
2024/04/03 02:48:36;;;;;;;1.77;0.60;;;;;21.00;99465.00;;;;2051841;28;20381;-57
2024/04/03 02:49:36;;;;;;;1.80;0.50;;;;;21.00;99525.00;;;;2054018;28;20629;-57
2024/04/03 02:50:36;;;;;;;1.57;0.40;;;;;21.00;99442.00;;;;2041775;28;20813;-58
2024/04/03 02:51:37;;;;;;;1.73;0.50;;;;;21.00;99487.00;;;;2051445;28;20216;-58
2024/04/03 02:52:37;;;;;;;2.50;0.70;;;;;21.00;99485.00;;;;2053426;28;20219;-58
2024/04/03 02:53:37;;;;;;;2.60;0.40;;;;;21.00;99530.00;;;;2051301;28;20226;-57
2024/04/03 02:54:38;;;;;;;1.53;0.40;;;;;21.00;99528.00;;;;2052662;28;20211;-57
2024/04/03 02:55:39;;;;;;;1.77;0.50;;;;;21.00;99529.00;;;;2040233;28;20232;-57
2024/04/03 02:56:39;;;;;;;2.05;0.60;;;;;21.00;99381.00;;;;2053994;28;20235;-57
2024/04/03 02:57:40;;;;;;;1.70;0.50;;;;;21.00;99311.00;;;;2053598;28;20498;-59
2024/04/03 02:58:40;;;;;;;2.00;0.70;;;;;21.00;99318.00;;;;2052726;28;20255;-57
2024/04/03 02:59:44;;;;;;;1.88;0.60;;;;;21.00;99531.00;;;;2053779;28;20239;-57
2024/04/03 03:00:45;;;;;;;1.60;0.60;;;;;21.00;99543.00;;;;2041661;28;20220;-56
2024/04/03 03:01:45;;;;;;;1.50;0.50;;;;;21.00;99405.00;;;;2053158;28;20223;-57
2024/04/03 03:02:46;;;;;;;1.40;0.40;;;;;21.00;99526.00;;;;2052037;28;20220;-59
2024/04/03 03:03:47;;;;;;;1.50;0.40;;;;;21.00;99503.00;;;;2047480;28;20306;-58
2024/04/03 03:04:47;;;;;;;1.80;0.60;;;;;21.00;99526.00;;;;2053936;28;20270;-58
2024/04/03 03:05:48;;;;;;;2.80;0.83;;;;;21.00;99397.00;;;;2041149;28;20679;-59
2024/04/03 03:06:48;;;;;;;2.37;0.70;;;;;20.90;99525.00;;;;2053706;28;20732;-58
2024/04/03 03:07:48;;;;;;;1.70;0.63;;;;;21.00;99561.00;;;;2052295;28;20251;-59
2024/04/03 03:08:49;;;;;;;1.97;0.53;;;;;21.00;99531.00;;;;2053178;28;20297;-57
2024/04/03 03:09:49;;;;;;;2.67;0.67;;;;;21.00;99476.00;;;;2051988;28;20228;-57
2024/04/03 03:10:49;;;;;;;2.17;0.70;;;;;21.00;99530.00;;;;2040120;28;20219;-57
2024/04/03 03:11:49;;;;;;;1.70;0.40;;;;;21.00;99431.00;;;;2053801;28;20258;-59
2024/04/03 03:12:50;;;;;;;1.97;0.60;;;;;21.00;99517.00;;;;2049250;28;20223;-59
2024/04/03 03:13:50;;;;;;;1.97;0.50;;;;;21.00;99499.00;;;;2053249;28;20224;-58
2024/04/03 03:14:50;;;;;;;1.70;0.50;;;;;21.00;99512.00;;;;2052262;28;20282;-59
2024/04/03 03:16:01;;;;;;;2.00;0.57;;;;;21.00;99528.00;;;;2043343;28;20230;-57
2024/04/03 03:17:01;;;;;;;1.70;0.52;;;;;21.00;99508.00;;;;2051589;28;20223;-57
2024/04/03 03:18:02;;;;;;;4.13;0.77;;;;;21.00;99470.00;;;;2052315;28;20243;-57
2024/04/03 03:19:02;;;;;;;3.03;0.83;;;;;21.00;99512.00;;;;2053439;28;20215;-57
2024/04/03 03:20:03;;;;;;;2.37;0.50;;;;;21.00;99517.00;;;;2042983;28;20278;-58
2024/04/03 03:21:04;;;;;;;1.50;0.50;;;;;21.00;99499.00;;;;2053104;28;20243;-57
2024/04/03 03:22:04;;;;;;;2.23;0.60;;;;;21.00;99412.00;;;;2052548;28;20235;-58
2024/04/03 03:23:04;;;;;;;2.27;0.60;;;;;20.60;99425.00;;;;2053592;28;20208;-58
2024/04/03 03:24:05;;;;;;;1.70;0.60;;;;;21.00;99497.00;;;;2053557;28;20215;-57
2024/04/03 03:25:05;;;;;;;1.80;0.70;;;;;21.00;99204.00;;;;2041330;28;20220;-58
2024/04/03 03:26:06;;;;;;;1.40;0.40;;;;;21.00;99485.00;;;;2052912;28;20558;-58
2024/04/03 03:27:06;;;;;;;1.43;0.40;;;;;21.00;99384.00;;;;2052653;28;20309;-57
2024/04/03 03:28:06;;;;;;;2.17;0.70;;;;;21.00;99449.00;;;;2053173;28;20224;-58
2024/04/03 03:29:07;;;;;;;2.20;0.70;;;;;21.00;99426.00;;;;2050757;28;20931;-58
2024/04/03 03:30:07;;;;;;;1.73;0.50;;;;;21.00;99418.00;;;;2043788;28;20839;-57
2024/04/03 03:31:08;;;;;;;1.50;0.50;;;;;21.00;99490.00;;;;2050943;28;20207;-58
2024/04/03 03:32:09;;;;;;;1.60;0.50;;;;;21.00;99513.00;;;;2052422;28;20216;-57
2024/04/03 03:33:09;;;;;;;1.93;0.70;;;;;21.00;99495.00;;;;2053054;28;20323;-58
2024/04/03 03:34:09;;;;;;;1.53;0.57;;;;;21.00;99456.00;;;;2051075;28;20223;-57
2024/04/03 03:35:10;;;;;;;1.97;0.60;;;;;21.00;99317.00;;;;2043880;28;20227;-58
2024/04/03 03:36:10;;;;;;;1.70;0.50;;;;;20.90;99354.00;;;;2051931;28;20255;-56
2024/04/03 03:37:10;;;;;;;1.80;0.50;;;;;21.00;99486.00;;;;2057380;28;20227;-56
2024/04/03 03:38:11;;;;;;;3.10;0.60;;;;;21.00;99482.00;;;;2051902;28;20270;-57
2024/04/03 03:39:11;;;;;;;1.50;0.50;;;;;21.00;99418.00;;;;2049495;28;20228;-57
2024/04/03 03:40:11;;;;;;;2.37;0.60;;;;;21.00;99261.00;;;;2043648;28;20247;-58
2024/04/03 03:41:12;;;;;;;3.10;0.67;;;;;21.00;99410.00;;;;2052331;28;20297;-58
2024/04/03 03:42:12;;;;;;;1.50;0.50;;;;;21.00;99468.00;;;;2058330;28;20223;-59
2024/04/03 03:43:12;;;;;;;2.97;0.60;;;;;21.00;99477.00;;;;2053062;28;20227;-58
2024/04/03 03:44:13;;;;;;;2.00;0.50;;;;;21.00;99360.00;;;;2051928;28;20214;-57
2024/04/03 03:45:20;;;;;;;1.83;0.57;;;;;21.00;99376.00;;;;2038303;28;20302;-58
2024/04/03 03:46:20;;;;;;;1.48;0.40;;;;;21.00;99412.00;;;;2052149;28;20211;-57
2024/04/03 03:47:20;;;;;;;1.70;0.50;;;;;21.00;99400.00;;;;2053061;28;20226;-58
2024/04/03 03:52:35;;;;;;;2.43;0.50;;;;;21.00;99485.00;;;;2052723;28;20215;-57
2024/04/03 03:52:40;;;;;;;1.85;0.60;;;;;21.00;99469.00;;;;2035296;29;20225;-57
2024/04/03 03:53:40;;;;;;;1.60;0.55;;;;;20.90;99480.00;;;;2035463;29;20221;-57
2024/04/03 03:54:41;;;;;;;1.57;0.50;;;;;20.90;99444.00;;;;2030696;28;20236;-57
2024/04/03 03:55:41;;;;;;;1.80;0.60;;;;;20.90;99367.00;;;;2043912;28;20231;-56
2024/04/03 03:56:41;;;;;;;1.90;0.63;;;;;20.90;99284.00;;;;2053678;28;24970;-57
2024/04/03 03:57:42;;;;;;;2.53;0.53;;;;;20.50;99300.00;;;;2048419;28;20228;-58
2024/04/03 03:58:42;;;;;;;2.53;0.63;;;;;20.90;99246.00;;;;2051247;28;20322;-57
2024/04/03 03:59:45;;;;;;;2.10;0.70;;;;;20.90;99385.00;;;;2052707;28;20223;-58
2024/04/03 04:00:45;;;;;;;1.70;0.50;;;;;20.90;99343.00;;;;2041658;28;20239;-57
2024/04/03 04:01:47;;;;;;;2.43;0.53;;;;;21.00;99326.00;;;;2052825;28;20219;-57
2024/04/03 04:02:47;;;;;;;1.90;0.50;;;;;20.90;99333.00;;;;2053067;28;20215;-57
2024/04/03 04:03:47;;;;;;;2.20;0.70;;;;;20.90;99455.00;;;;2053348;28;20235;-57
2024/04/03 04:04:49;;;;;;;2.27;0.83;;;;;20.90;99448.00;;;;2053369;28;20227;-57
2024/04/03 04:05:58;;;;;;;3.05;0.60;;;;;20.90;99485.00;;;;2037822;28;20220;-57
2024/04/03 04:06:58;;;;;;;1.90;0.52;;;;;20.80;99461.00;;;;2051008;28;20224;-56
2024/04/03 04:07:58;;;;;;;2.10;0.50;;;;;20.90;99442.00;;;;2053046;28;20944;-56
2024/04/03 04:08:59;;;;;;;1.90;0.53;;;;;20.90;99422.00;;;;2054565;28;20215;-56
2024/04/03 04:09:59;;;;;;;1.70;0.70;;;;;20.90;99445.00;;;;2055679;28;20211;-56
2024/04/03 04:11:00;;;;;;;1.70;0.57;;;;;20.90;99430.00;;;;2053208;28;20230;-56
2024/04/03 04:12:00;;;;;;;1.77;0.53;;;;;20.90;99321.00;;;;2063207;28;20322;-56
2024/04/03 04:13:00;;;;;;;1.57;0.50;;;;;20.90;99339.00;;;;2059614;28;20218;-57
2024/04/03 04:14:01;;;;;;;2.37;0.70;;;;;20.90;99435.00;;;;2052590;28;20231;-56
2024/04/03 04:15:02;;;;;;;1.70;0.40;;;;;20.90;99332.00;;;;2045620;28;20222;-59
2024/04/03 04:16:03;;;;;;;1.50;0.45;;;;;20.90;99449.00;;;;2052635;28;20203;-56
2024/04/03 04:17:03;;;;;;;1.63;0.50;;;;;20.90;99377.00;;;;2052095;28;20701;-58
2024/04/03 04:18:04;;;;;;;2.53;0.60;;;;;20.90;99417.00;;;;2052640;28;20211;-58
2024/04/03 04:19:04;;;;;;;1.70;0.60;;;;;20.90;99454.00;;;;2052952;28;20227;-58
2024/04/03 04:20:07;;;;;;;1.60;0.53;;;;;20.90;99230.00;;;;2040270;28;20303;-60
2024/04/03 04:21:07;;;;;;;2.33;0.57;;;;;20.90;99335.00;;;;2059780;28;20759;-58
2024/04/03 04:22:08;;;;;;;3.33;0.50;;;;;20.90;99406.00;;;;2052158;28;20244;-58
2024/04/03 04:23:08;;;;;;;1.90;0.60;;;;;20.90;99406.00;;;;2052337;28;20220;-58
2024/04/03 04:24:08;;;;;;;1.47;0.40;;;;;20.90;99254.00;;;;2050795;28;20220;-58
2024/04/03 04:25:09;;;;;;;2.90;0.50;;;;;20.90;99463.00;;;;2041768;28;20315;-57
2024/04/03 04:26:09;;;;;;;2.10;0.50;;;;;20.90;99474.00;;;;2052449;28;20298;-59
2024/04/03 04:27:09;;;;;;;1.63;0.60;;;;;20.90;99454.00;;;;2052076;28;20224;-58
2024/04/03 04:28:10;;;;;;;2.00;0.60;;;;;20.90;99469.00;;;;2052600;28;20216;-58
2024/04/03 04:29:10;;;;;;;3.77;0.60;;;;;20.90;99452.00;;;;2051575;28;20340;-57
2024/04/03 04:30:10;;;;;;;2.17;0.70;;;;;20.90;99401.00;;;;2042516;28;20266;-58
2024/04/03 04:31:11;;;;;;;1.87;0.60;;;;;20.90;99385.00;;;;2051579;28;20216;-58
2024/04/03 04:32:11;;;;;;;2.03;0.60;;;;;20.90;99450.00;;;;2058518;28;20211;-56
2024/04/03 04:33:11;;;;;;;1.70;0.50;;;;;20.90;99423.00;;;;2053054;28;20207;-57
2024/04/03 04:34:12;;;;;;;1.70;0.53;;;;;20.90;99451.00;;;;2050117;28;20700;-57
2024/04/03 04:35:12;;;;;;;2.73;0.67;;;;;20.90;99449.00;;;;2043360;28;20648;-58
2024/04/03 04:36:13;;;;;;;1.70;0.60;;;;;20.90;99364.00;;;;2051458;28;20208;-58
2024/04/03 04:37:13;;;;;;;1.83;0.50;;;;;20.90;99456.00;;;;2057911;28;20212;-59
2024/04/03 04:38:13;;;;;;;2.27;0.77;;;;;20.90;99292.00;;;;2052199;28;20306;-57
2024/04/03 04:39:14;;;;;;;2.20;0.73;;;;;20.90;99453.00;;;;2055899;28;20227;-57
2024/04/03 04:40:15;;;;;;;1.63;0.50;;;;;20.90;99281.00;;;;2042724;28;20215;-57
2024/04/03 04:41:15;;;;;;;1.88;0.60;;;;;20.90;99280.00;;;;2050994;28;20211;-57
2024/04/03 04:42:15;;;;;;;1.50;0.50;;;;;20.70;99274.00;;;;2052993;28;20344;-57
2024/04/03 04:43:16;;;;;;;1.70;0.50;;;;;20.90;99386.00;;;;2051758;28;20219;-57
2024/04/03 04:44:17;;;;;;;1.60;0.50;;;;;20.90;99438.00;;;;2046115;28;20302;-57
2024/04/03 04:45:17;;;;;;;2.33;0.60;;;;;20.90;99346.00;;;;2049794;28;20711;-59
2024/04/03 04:46:17;;;;;;;1.93;0.53;;;;;20.50;99378.00;;;;2051789;28;20458;-58
2024/04/03 04:47:18;;;;;;;2.77;0.60;;;;;20.60;99291.00;;;;2052604;28;20681;-58
2024/04/03 04:48:18;;;;;;;2.20;0.70;;;;;20.90;99439.00;;;;2051915;28;20227;-58
2024/04/03 04:49:19;;;;;;;1.60;0.50;;;;;20.90;99469.00;;;;2051983;28;20243;-57
2024/04/03 04:50:19;;;;;;;1.63;0.50;;;;;20.90;99436.00;;;;2042401;28;20251;-58
2024/04/03 04:51:21;;;;;;;2.07;0.63;;;;;20.90;99277.00;;;;2047294;28;20478;-58
2024/04/03 04:52:21;;;;;;;1.50;0.60;;;;;20.90;99435.00;;;;2052181;28;20223;-57
2024/04/03 04:53:21;;;;;;;2.03;0.60;;;;;20.90;99433.00;;;;2052156;28;20211;-58
2024/04/03 04:54:23;;;;;;;2.23;0.50;;;;;20.80;99430.00;;;;2052438;28;20215;-58
2024/04/03 04:55:23;;;;;;;1.38;0.40;;;;;20.90;99297.00;;;;2039010;28;20236;-57
2024/04/03 04:56:23;;;;;;;1.60;0.50;;;;;20.90;99457.00;;;;2056468;28;20211;-58
2024/04/03 04:57:24;;;;;;;1.60;0.50;;;;;20.90;99429.00;;;;2053792;28;20424;-58
2024/04/03 04:58:24;;;;;;;1.60;0.50;;;;;20.90;99424.00;;;;2056767;28;20223;-58
2024/04/03 04:59:25;;;;;;;1.83;0.50;;;;;20.90;99357.00;;;;2052140;28;20223;-56
2024/04/03 05:00:25;;;;;;;2.07;0.50;;;;;20.90;99378.00;;;;2041911;28;20243;-57
2024/04/03 05:01:25;;;;;;;1.70;0.53;;;;;20.90;99233.00;;;;2051836;28;20249;-57
2024/04/03 05:02:26;;;;;;;1.43;0.40;;;;;20.90;99253.00;;;;2050963;28;20697;-57
2024/04/03 05:03:26;;;;;;;1.77;0.57;;;;;20.90;99050.00;;;;2043731;28;20631;-57
2024/04/03 05:04:28;;;;;;;1.67;0.50;;;;;20.90;99414.00;;;;2049305;28;20580;-57
2024/04/03 05:05:31;;;;;;;2.80;0.60;;;;;20.90;99394.00;;;;2042503;28;20235;-60
2024/04/03 05:06:32;;;;;;;1.60;0.50;;;;;20.30;99422.00;;;;2050782;28;20231;-58